createdAt,value
2019-01-10T00:01:10.890Z,100.00
2019-01-10T00:03:39.413Z,100.00
2019-01-10T00:06:07.974Z,100.00
2019-01-10T00:08:36.489Z,100.00
2019-01-10T00:11:05.040Z,100.00
2019-01-10T00:13:33.664Z,100.00
2019-01-10T00:16:02.193Z,100.00
2019-01-10T00:18:30.718Z,100.00
2019-01-10T00:21:12.720Z,100.00
2019-01-10T00:23:41.365Z,100.00
2019-01-10T00:26:09.901Z,100.00
2019-01-10T00:28:38.424Z,100.00
2019-01-10T00:31:06.944Z,100.00
2019-01-10T00:33:35.490Z,100.00
2019-01-10T00:36:04.022Z,100.00
2019-01-10T00:38:32.568Z,100.00
2019-01-10T00:41:01.090Z,100.00
2019-01-10T00:43:29.618Z,100.00
2019-01-10T00:45:58.186Z,100.00
2019-01-10T00:48:30.666Z,100.00
2019-01-10T00:50:59.241Z,100.00
2019-01-10T00:53:27.814Z,100.00
2019-01-10T00:55:56.350Z,100.00
2019-01-10T00:58:24.922Z,100.00
2019-01-10T01:00:53.447Z,100.00
2019-01-10T01:03:21.990Z,100.00
2019-01-10T01:05:55.425Z,100.00
2019-01-10T01:08:24.999Z,100.00
2019-01-10T01:10:53.534Z,100.00
2019-01-10T01:13:22.067Z,100.00
2019-01-10T01:15:50.599Z,100.00
2019-01-10T01:18:19.147Z,100.00
2019-01-10T01:20:47.715Z,100.00
2019-01-10T01:23:16.218Z,100.00
2019-01-10T01:25:44.753Z,100.00
2019-01-10T01:28:13.287Z,100.00
2019-01-10T01:30:41.846Z,100.00
2019-01-10T01:33:10.351Z,100.00
2019-01-10T01:35:38.886Z,100.00
2019-01-10T01:38:07.491Z,100.00
2019-01-10T01:40:36.586Z,100.00
2019-01-10T01:43:07.469Z,100.00
2019-01-10T01:45:33.727Z,100.00
2019-01-10T01:48:07.036Z,100.00
2019-01-10T01:50:35.567Z,100.00
2019-01-10T01:53:04.086Z,100.00
2019-01-10T01:55:32.643Z,100.00
2019-01-10T01:58:01.171Z,100.00
2019-01-10T02:00:29.698Z,100.00
2019-01-10T02:02:58.222Z,100.00
2019-01-10T02:05:26.749Z,100.00
2019-01-10T02:07:55.280Z,100.00
2019-01-10T02:10:23.817Z,100.00
2019-01-10T02:12:52.346Z,100.00
2019-01-10T02:15:20.884Z,100.00
2019-01-10T02:17:49.556Z,100.00
2019-01-10T02:20:17.958Z,100.00
2019-01-10T02:22:46.514Z,100.00
2019-01-10T02:25:15.055Z,100.00
2019-01-10T02:27:44.588Z,100.00
2019-01-10T02:30:41.653Z,100.00
2019-01-10T02:33:01.345Z,100.00
2019-01-10T02:35:29.865Z,100.00
2019-01-10T02:37:59.312Z,100.00
2019-01-10T02:40:27.850Z,100.00
2019-01-10T02:42:56.390Z,100.00
2019-01-10T02:45:25.943Z,100.00
2019-01-10T02:47:54.497Z,100.00
2019-01-10T02:50:23.023Z,100.00
2019-01-10T02:52:51.556Z,100.00
2019-01-10T02:55:20.099Z,100.00
2019-01-10T02:57:48.658Z,100.00
2019-01-10T03:00:18.203Z,100.00
2019-01-10T03:02:46.798Z,100.00
2019-01-10T03:05:15.314Z,100.00
2019-01-10T03:07:43.866Z,100.00
2019-01-10T03:14:08.673Z,100.00
2019-01-10T03:16:49.317Z,100.00
2019-01-10T03:19:18.534Z,100.00
2019-01-10T03:21:47.611Z,100.00
2019-01-10T03:24:16.701Z,100.00
2019-01-10T03:26:45.771Z,100.00
2019-01-10T03:29:14.819Z,100.00
2019-01-10T03:31:43.886Z,100.00
2019-01-10T03:36:48.649Z,100.00
2019-01-10T03:39:17.694Z,100.00
2019-01-10T03:41:47.119Z,100.00
2019-01-10T03:44:15.865Z,100.00
2019-01-10T03:46:44.878Z,100.00
2019-01-10T03:49:13.947Z,100.00
2019-01-10T03:51:43.038Z,100.00
2019-01-10T03:54:12.098Z,100.00
2019-01-10T03:56:41.159Z,100.00
2019-01-10T03:59:10.241Z,100.00
2019-01-10T04:01:39.335Z,100.00
2019-01-10T04:04:08.399Z,100.00
2019-01-10T04:06:39.705Z,100.00
2019-01-10T04:09:06.512Z,100.00
2019-01-10T04:11:35.569Z,100.00
2019-01-10T04:16:43.857Z,100.00
2019-01-10T04:19:12.908Z,100.00
2019-01-10T04:21:42.040Z,100.00
2019-01-10T04:24:11.698Z,100.00
2019-01-10T04:26:40.737Z,100.00
2019-01-10T04:29:10.796Z,100.00
2019-01-10T04:31:39.895Z,100.00
2019-01-10T04:34:08.949Z,100.00
2019-01-10T04:36:38.034Z,100.00
2019-01-10T04:39:07.096Z,100.00
2019-01-10T04:41:36.167Z,100.00
2019-01-10T04:44:07.279Z,100.00
2019-01-10T04:46:45.926Z,100.00
2019-01-10T04:49:14.950Z,100.00
2019-01-10T04:51:44.016Z,100.00
2019-01-10T04:54:13.063Z,100.00
2019-01-10T04:56:42.142Z,100.00
2019-01-10T04:59:12.181Z,100.00
2019-01-10T05:01:40.315Z,100.00
2019-01-10T05:04:09.391Z,100.00
2019-01-10T05:06:38.465Z,100.00
2019-01-10T05:09:07.586Z,100.00
2019-01-10T05:11:36.697Z,100.00
2019-01-10T05:14:05.884Z,100.00
2019-01-10T05:16:36.321Z,100.00
2019-01-10T05:19:05.466Z,100.00
2019-01-10T05:21:34.923Z,100.00
2019-01-10T05:24:04.043Z,100.00
2019-01-10T05:26:33.133Z,100.00
2019-01-10T05:29:02.220Z,100.00
2019-01-10T05:31:31.250Z,100.00
2019-01-10T05:34:00.328Z,100.00
2019-01-10T05:36:29.387Z,100.00
2019-01-10T05:38:58.455Z,100.00
2019-01-10T05:41:27.527Z,100.00
2019-01-10T05:43:56.645Z,100.00
2019-01-10T05:46:25.718Z,100.00
2019-01-10T05:48:54.801Z,100.00
2019-01-10T05:51:23.846Z,100.00
2019-01-10T05:53:52.932Z,100.00
2019-01-10T05:56:21.999Z,100.00
2019-01-10T05:58:51.067Z,100.00
2019-01-10T06:01:20.126Z,100.00
2019-01-10T06:03:53.425Z,100.00
2019-01-10T06:06:19.200Z,100.00
2019-01-10T06:08:48.285Z,100.00
2019-01-10T06:11:18.273Z,100.00
2019-01-10T06:13:47.339Z,100.00
2019-01-10T06:16:16.411Z,100.00
2019-01-10T06:18:45.517Z,100.00
2019-01-10T06:21:16.192Z,100.00
2019-01-10T06:23:45.909Z,100.00
2019-01-10T06:26:15.468Z,100.00
2019-01-10T06:30:16.720Z,100.00
2019-01-10T06:35:31.321Z,100.00
2019-01-10T06:38:01.887Z,100.00
2019-01-10T06:40:31.873Z,100.00
2019-01-10T06:43:00.933Z,100.00
2019-01-10T06:45:30.003Z,100.00
2019-01-10T06:51:59.096Z,100.00
2019-01-10T06:57:03.946Z,100.00
2019-01-10T06:59:33.025Z,100.00
2019-01-10T07:04:37.343Z,100.00
2019-01-10T07:07:07.338Z,100.00
2019-01-10T07:09:36.430Z,100.00
2019-01-10T07:12:07.645Z,100.00
2019-01-10T07:14:34.645Z,100.00
2019-01-10T07:17:03.726Z,100.00
2019-01-10T07:19:38.279Z,100.00
2019-01-10T07:22:07.365Z,100.00
2019-01-10T07:24:39.270Z,100.00
2019-01-10T07:29:44.043Z,100.00
2019-01-10T07:32:13.111Z,100.00
2019-01-10T07:34:42.293Z,100.00
2019-01-10T07:37:12.976Z,100.00
2019-01-10T07:39:40.403Z,100.00
2019-01-10T07:44:48.165Z,100.00
2019-01-10T07:47:17.215Z,100.00
2019-01-10T07:49:46.265Z,100.00
2019-01-10T07:52:15.337Z,100.00
2019-01-10T07:54:44.392Z,100.00
2019-01-10T07:57:13.453Z,100.00
2019-01-10T07:59:42.499Z,100.00
2019-01-10T08:02:11.558Z,100.00
2019-01-10T08:04:40.639Z,100.00
2019-01-10T08:07:14.613Z,100.00
2019-01-10T08:11:32.893Z,100.00
2019-01-10T08:14:01.947Z,100.00
2019-01-10T08:16:31.023Z,100.00
2019-01-10T08:19:00.113Z,100.00
2019-01-10T08:21:29.171Z,100.00
2019-01-10T08:23:58.216Z,100.00
2019-01-10T08:26:27.283Z,100.00
2019-01-10T08:28:56.354Z,100.00
2019-01-10T08:31:25.442Z,100.00
2019-01-10T08:33:54.473Z,100.00
2019-01-10T08:36:32.124Z,100.00
2019-01-10T08:38:52.571Z,100.00
2019-01-10T08:41:21.622Z,100.00
2019-01-10T08:43:50.689Z,100.00
2019-01-10T08:46:19.768Z,100.00
2019-01-10T08:48:48.831Z,100.00
2019-01-10T08:51:17.979Z,100.00
2019-01-10T08:53:53.806Z,100.00
2019-01-10T08:56:16.110Z,100.00
2019-01-10T08:58:45.178Z,100.00
2019-01-10T09:01:14.219Z,100.00
2019-01-10T09:03:43.268Z,100.00
2019-01-10T09:06:12.302Z,100.00
2019-01-10T09:08:41.355Z,100.00
2019-01-10T09:11:10.423Z,99.87
2019-01-10T09:13:39.475Z,100.00
2019-01-10T09:16:13.016Z,99.86
2019-01-10T09:18:46.832Z,100.00
2019-01-10T09:21:15.883Z,100.00
2019-01-10T09:23:44.943Z,100.00
2019-01-10T09:26:14.003Z,100.00
2019-01-10T09:28:43.055Z,100.00
2019-01-10T09:31:12.111Z,100.00
2019-01-10T09:33:41.157Z,99.99
2019-01-10T09:36:10.205Z,100.00
2019-01-10T09:38:39.266Z,100.00
2019-01-10T09:41:10.010Z,99.56
2019-01-10T09:43:39.501Z,99.45
2019-01-10T09:46:08.546Z,99.16
2019-01-10T09:48:37.700Z,99.77
2019-01-10T09:53:42.479Z,99.12
2019-01-10T09:56:11.533Z,98.51
2019-01-10T09:58:40.587Z,98.50
2019-01-10T10:01:09.627Z,97.91
2019-01-10T10:06:15.345Z,97.84
2019-01-10T10:11:20.079Z,96.76
2019-01-10T10:13:49.158Z,96.91
2019-01-10T10:16:18.242Z,97.09
2019-01-10T10:18:47.284Z,96.68
2019-01-10T10:21:16.323Z,96.78
2019-01-10T10:23:54.708Z,96.48
2019-01-10T10:26:23.866Z,96.93
2019-01-10T10:28:52.912Z,96.62
2019-01-10T10:31:21.974Z,96.18
2019-01-10T10:33:51.034Z,96.13
2019-01-10T10:36:20.105Z,94.74
2019-01-10T10:38:49.143Z,94.88
2019-01-10T10:41:18.210Z,94.54
2019-01-10T10:43:47.225Z,95.48
2019-01-10T10:46:16.259Z,96.69
2019-01-10T10:48:45.305Z,95.21
2019-01-10T10:51:14.346Z,96.74
2019-01-10T10:56:19.139Z,96.64
2019-01-10T10:58:48.176Z,95.31
2019-01-10T11:01:17.195Z,98.23
2019-01-10T11:03:46.260Z,98.75
2019-01-10T11:08:50.983Z,99.00
2019-01-10T11:11:22.414Z,97.27
2019-01-10T11:13:51.454Z,97.31
2019-01-10T11:16:20.503Z,97.99
2019-01-10T11:18:49.540Z,97.00
2019-01-10T11:21:20.611Z,96.17
2019-01-10T11:23:47.721Z,93.77
2019-01-10T11:26:16.773Z,92.84
2019-01-10T11:28:45.813Z,93.94
2019-01-10T11:31:14.848Z,93.23
2019-01-10T11:33:43.905Z,94.29
2019-01-10T11:36:12.948Z,94.65
2019-01-10T11:38:41.993Z,93.50
2019-01-10T11:41:11.024Z,93.67
2019-01-10T11:43:40.055Z,94.25
2019-01-10T11:46:09.104Z,93.97
2019-01-10T11:48:38.152Z,93.77
2019-01-10T11:51:07.200Z,92.96
2019-01-10T11:53:36.299Z,95.05
2019-01-10T11:56:05.348Z,92.36
2019-01-10T12:01:11.513Z,92.22
2019-01-10T12:03:40.500Z,91.07
2019-01-10T12:06:09.524Z,91.76
2019-01-10T12:08:38.584Z,90.47
2019-01-10T12:11:07.603Z,90.40
2019-01-10T12:13:36.659Z,89.58
2019-01-10T12:16:05.701Z,89.33
2019-01-10T12:18:34.764Z,90.52
2019-01-10T12:21:03.799Z,90.54
2019-01-10T12:23:32.871Z,90.28
2019-01-10T12:26:01.897Z,89.84
2019-01-10T12:28:30.946Z,91.25
2019-01-10T12:30:59.977Z,91.16
2019-01-10T12:33:29.040Z,90.76
2019-01-10T12:35:58.105Z,91.25
2019-01-10T12:38:27.168Z,90.55
2019-01-10T12:40:56.215Z,90.61
2019-01-10T12:43:25.297Z,91.20
2019-01-10T12:45:54.359Z,91.36
2019-01-10T12:48:23.391Z,90.80
2019-01-10T12:53:28.114Z,92.11
2019-01-10T12:55:57.287Z,91.51
2019-01-10T12:58:26.296Z,91.73
2019-01-10T13:00:55.326Z,91.75
2019-01-10T13:03:24.385Z,92.77
2019-01-10T13:08:29.191Z,92.21
2019-01-10T13:10:58.238Z,93.09
2019-01-10T13:13:27.327Z,95.46
2019-01-10T13:15:56.347Z,94.39
2019-01-10T13:18:29.975Z,94.27
2019-01-10T13:23:34.822Z,93.16
2019-01-10T13:26:06.567Z,93.72
2019-01-10T13:28:35.582Z,93.95
2019-01-10T13:31:04.624Z,94.90
2019-01-10T13:33:33.675Z,94.43
2019-01-10T13:36:02.738Z,93.88
2019-01-10T13:38:31.770Z,93.56
2019-01-10T13:41:00.871Z,92.03
2019-01-10T13:43:29.937Z,92.39
2019-01-10T13:45:58.975Z,92.85
2019-01-10T13:48:28.003Z,92.79
2019-01-10T13:50:58.061Z,93.03
2019-01-10T13:53:28.067Z,92.11
2019-01-10T13:55:57.124Z,92.12
2019-01-10T13:58:26.175Z,92.17
2019-01-10T14:00:55.234Z,92.85
2019-01-10T14:03:24.284Z,93.33
2019-01-10T14:05:53.360Z,92.02
2019-01-10T14:08:22.399Z,91.77
2019-01-10T14:10:51.508Z,92.51
2019-01-10T14:13:20.531Z,93.71
2019-01-10T14:15:49.598Z,93.58
2019-01-10T14:18:18.649Z,93.62
2019-01-10T14:20:47.695Z,94.54
2019-01-10T14:23:16.757Z,93.63
2019-01-10T14:25:52.750Z,93.43
2019-01-10T14:28:21.840Z,93.71
2019-01-10T14:30:50.894Z,94.27
2019-01-10T14:33:19.938Z,94.54
2019-01-10T14:35:48.994Z,94.55
2019-01-10T14:38:18.981Z,96.13
2019-01-10T14:43:23.823Z,95.72
2019-01-10T14:48:28.558Z,95.86
2019-01-10T14:53:33.361Z,95.15
2019-01-10T14:56:02.403Z,94.94
2019-01-10T14:58:31.447Z,95.35
2019-01-10T15:01:00.500Z,95.72
2019-01-10T15:03:29.554Z,95.95
2019-01-10T15:05:58.599Z,95.85
2019-01-10T15:08:27.643Z,96.67
2019-01-10T15:10:56.695Z,97.45
2019-01-10T15:13:25.882Z,98.52
2019-01-10T15:18:30.663Z,98.66
2019-01-10T15:20:59.731Z,98.97
2019-01-10T15:23:28.782Z,98.50
2019-01-10T15:25:57.898Z,97.83
2019-01-10T15:28:26.939Z,97.62
2019-01-10T15:30:57.157Z,98.08
2019-01-10T15:33:25.020Z,97.88
2019-01-10T15:38:29.812Z,97.94
2019-01-10T15:40:58.843Z,98.98
2019-01-10T15:43:29.831Z,98.87
2019-01-10T15:45:58.873Z,98.73
2019-01-10T15:48:27.918Z,99.25
2019-01-10T15:50:56.982Z,99.17
2019-01-10T15:53:26.032Z,98.62
2019-01-10T15:55:55.083Z,98.93
2019-01-10T15:58:35.855Z,99.85
2019-01-10T16:03:40.747Z,100.00
2019-01-10T16:06:09.798Z,100.00
2019-01-10T16:08:38.855Z,99.58
2019-01-10T16:11:07.930Z,99.79
2019-01-10T16:13:36.995Z,100.00
2019-01-10T16:16:06.048Z,100.00
2019-01-10T16:18:35.135Z,99.74
2019-01-10T16:21:04.233Z,100.00
2019-01-10T16:23:33.284Z,99.74
2019-01-10T16:26:02.328Z,99.68
2019-01-10T16:28:31.382Z,100.00
2019-01-10T16:31:00.682Z,100.00
2019-01-10T16:33:29.748Z,100.00
2019-01-10T16:35:59.220Z,99.72
2019-01-10T16:38:27.995Z,99.42
2019-01-10T16:40:57.027Z,99.91
2019-01-10T16:43:26.079Z,100.00
2019-01-10T16:45:55.186Z,100.00
2019-01-10T16:48:24.239Z,100.00
2019-01-10T16:50:53.314Z,99.91
2019-01-10T16:53:22.347Z,100.00
2019-01-10T16:55:51.427Z,100.00
2019-01-10T16:58:20.497Z,100.00
2019-01-10T17:00:49.593Z,100.00
2019-01-10T17:03:18.907Z,100.00
2019-01-10T17:05:51.627Z,100.00
2019-01-10T17:10:56.509Z,100.00
2019-01-10T17:13:25.572Z,100.00
2019-01-10T17:15:54.619Z,99.54
2019-01-10T17:18:23.726Z,99.62
2019-01-10T17:20:52.795Z,100.00
2019-01-10T17:23:21.974Z,100.00
2019-01-10T17:25:51.250Z,99.70
2019-01-10T17:30:56.037Z,99.78
2019-01-10T17:33:26.755Z,99.95
2019-01-10T17:35:55.819Z,100.00
2019-01-10T17:38:24.872Z,100.00
2019-01-10T17:40:54.080Z,99.93
2019-01-10T17:43:23.195Z,99.29
2019-01-10T17:45:52.252Z,99.38
2019-01-10T17:48:21.322Z,99.19
2019-01-10T17:50:50.364Z,97.72
2019-01-10T17:55:55.102Z,97.86
2019-01-10T17:58:24.163Z,98.22
2019-01-10T18:00:53.224Z,97.58
2019-01-10T18:03:22.298Z,98.14
2019-01-10T18:05:51.355Z,97.01
2019-01-10T18:08:20.396Z,97.55
2019-01-10T18:10:49.439Z,95.93
2019-01-10T18:13:18.528Z,95.26
2019-01-10T18:15:47.672Z,95.83
2019-01-10T18:18:16.732Z,96.20
2019-01-10T18:20:45.867Z,96.42
2019-01-10T18:23:14.936Z,97.37
2019-01-10T18:25:44.004Z,97.88
2019-01-10T18:28:13.769Z,97.61
2019-01-10T18:30:43.427Z,97.97
2019-01-10T18:33:11.164Z,98.06
2019-01-10T18:35:40.276Z,97.06
2019-01-10T18:38:10.036Z,98.07
2019-01-10T18:40:39.107Z,98.95
2019-01-10T18:43:08.159Z,98.63
2019-01-10T18:45:37.212Z,98.52
2019-01-10T18:48:06.259Z,98.39
2019-01-10T18:50:35.321Z,98.54
2019-01-10T18:53:04.427Z,97.89
2019-01-10T18:55:34.418Z,97.97
2019-01-10T18:58:03.478Z,97.80
2019-01-10T19:00:32.530Z,97.38
2019-01-10T19:03:01.602Z,97.96
2019-01-10T19:08:15.315Z,98.59
2019-01-10T19:10:44.372Z,96.20
2019-01-10T19:13:13.431Z,96.39
2019-01-10T19:15:43.483Z,97.05
2019-01-10T19:18:12.589Z,98.04
2019-01-10T19:20:41.634Z,99.50
2019-01-10T19:23:10.695Z,98.98
2019-01-10T19:25:45.277Z,98.77
2019-01-10T19:28:14.331Z,99.49
2019-01-10T19:30:43.374Z,98.35
2019-01-10T19:35:49.128Z,99.01
2019-01-10T19:38:18.220Z,99.33
2019-01-10T19:40:47.317Z,99.52
2019-01-10T19:43:16.370Z,99.97
2019-01-10T19:45:45.439Z,100.00
2019-01-10T19:48:14.490Z,99.50
2019-01-10T19:50:43.542Z,98.65
2019-01-10T19:53:12.671Z,98.34
2019-01-10T19:55:42.702Z,99.08
2019-01-10T20:00:48.676Z,98.34
2019-01-10T20:03:17.755Z,98.45
2019-01-10T20:05:46.795Z,98.63
2019-01-10T20:08:15.928Z,98.16
2019-01-10T20:10:45.008Z,97.20
2019-01-10T20:13:14.951Z,97.14
2019-01-10T20:15:44.016Z,96.74
2019-01-10T20:18:16.436Z,95.48
2019-01-10T20:20:43.126Z,95.23
2019-01-10T20:23:12.200Z,94.60
2019-01-10T20:28:17.507Z,95.89
2019-01-10T20:30:47.487Z,94.25
2019-01-10T20:33:16.557Z,92.95
2019-01-10T20:35:46.649Z,94.48
2019-01-10T20:38:15.710Z,94.36
2019-01-10T20:40:44.836Z,93.93
2019-01-10T20:43:13.906Z,93.88
2019-01-10T20:45:42.996Z,92.61
2019-01-10T20:48:12.108Z,93.23
2019-01-10T20:50:41.178Z,95.15
2019-01-10T20:53:10.243Z,95.42
2019-01-10T20:55:39.328Z,93.19
2019-01-10T20:58:08.422Z,93.23
2019-01-10T21:00:37.469Z,93.70
2019-01-10T21:03:06.567Z,94.21
2019-01-10T21:05:35.639Z,94.65
2019-01-10T21:08:06.099Z,92.97
2019-01-10T21:10:35.196Z,92.22
2019-01-10T21:13:04.282Z,92.50
2019-01-10T21:15:33.319Z,93.19
2019-01-10T21:18:03.059Z,94.41
2019-01-10T21:20:37.212Z,94.52
2019-01-10T21:23:06.410Z,95.09
2019-01-10T21:25:35.461Z,94.57
2019-01-10T21:28:04.517Z,93.58
2019-01-10T21:30:33.563Z,93.97
2019-01-10T21:33:02.954Z,94.99
2019-01-10T21:35:31.992Z,92.94
2019-01-10T21:38:01.023Z,93.54
2019-01-10T21:40:30.075Z,93.90
2019-01-10T21:42:59.187Z,94.37
2019-01-10T21:45:29.171Z,94.07
2019-01-10T21:47:58.231Z,93.07
2019-01-10T21:53:04.473Z,92.93
2019-01-10T21:55:33.591Z,91.64
2019-01-10T21:58:04.017Z,91.66
2019-01-10T22:00:33.388Z,91.90
2019-01-10T22:03:14.108Z,92.25
2019-01-10T22:05:44.208Z,91.95
2019-01-10T22:08:13.277Z,93.40
2019-01-10T22:10:42.371Z,93.44
2019-01-10T22:13:11.432Z,91.39
2019-01-10T22:15:41.403Z,90.99
2019-01-10T22:18:10.466Z,88.96
2019-01-10T22:20:39.534Z,91.12
2019-01-10T22:23:09.518Z,89.48
2019-01-10T22:25:39.063Z,90.18
2019-01-10T22:33:15.683Z,92.17
2019-01-10T22:35:44.766Z,91.19
2019-01-10T22:38:13.834Z,92.01
2019-01-10T22:40:42.929Z,91.66
2019-01-10T22:43:12.054Z,87.61
2019-01-10T22:45:43.113Z,88.21
2019-01-10T22:48:12.191Z,88.31
2019-01-10T22:50:41.234Z,87.58
2019-01-10T22:53:11.224Z,89.64
2019-01-10T22:55:40.309Z,88.17
2019-01-10T22:58:10.393Z,89.73
2019-01-10T23:00:45.057Z,89.58
2019-01-10T23:03:14.089Z,90.21
2019-01-10T23:05:43.245Z,90.35
2019-01-10T23:08:12.733Z,89.61
2019-01-10T23:10:41.851Z,89.43
2019-01-10T23:13:11.911Z,88.78
2019-01-10T23:15:41.034Z,88.37
2019-01-10T23:18:10.084Z,88.89
2019-01-10T23:20:39.159Z,88.37
2019-01-10T23:23:10.444Z,88.43
2019-01-10T23:25:39.520Z,88.35
2019-01-10T23:28:08.589Z,87.57
2019-01-10T23:30:44.539Z,86.09
2019-01-10T23:33:13.671Z,86.36
2019-01-10T23:35:46.452Z,88.59
2019-01-10T23:38:24.615Z,87.80
2019-01-10T23:40:53.818Z,87.90
2019-01-10T23:43:24.834Z,87.92
2019-01-10T23:45:54.274Z,87.43
2019-01-10T23:48:23.402Z,87.64
2019-01-10T23:50:52.618Z,87.78
2019-01-10T23:53:21.691Z,88.36
2019-01-10T23:55:50.749Z,88.95
2019-01-10T23:58:20.798Z,88.32
